Terminal Aerodrome Forecast
Issued by NWS

Home | Current Version | Previous Version | Text Only | Print | Product List | Glossary Off
Versions: 1 2 3 4 5 6 7 8 9 10 11 12 13 14 15 16 17 18 19 20 21 22 23 24

000
FTUS43 KABR 020500
TAFATY
TAF
KATY 020529Z 0206/0306 VRB06KT P6SM SKC
     FM021300 17009KT P6SM SCT250
     FM021800 17016G24KT P6SM BKN100 OVC250
     FM030300 17017KT P6SM BKN050 OVC090=

USA.gov is the U.S. government's official web portal to all federal, state and local government web resources and services.